Time;durP1;ratioP1;P1;durP2;ratioP2;P2;SDS_P1;SDS_P2;PMS_P1;PMS_P2;Temp;Humidity;BMP_temperature;BMP_pressure;BME280_temperature;BME280_humidity;BME280_pressure;Samples;Min_cycle;Max_cycle;Signal;HPM_P1;HPM_P2
2021/12/18 00:02:22;;;;;;;96.97;81.32;;;20.30;48.70;;;;;;4748509;58;21014;-37
2021/12/18 00:07:23;;;;;;;97.93;82.95;;;20.30;48.70;;;;;;4877032;55;21005;-39
2021/12/18 00:12:24;;;;;;;92.03;76.50;;;20.30;48.70;;;;;;4766214;55;21021;-36
2021/12/18 00:17:24;;;;;;;91.75;78.03;;;20.30;48.60;;;;;;5116603;55;21064;-37
2021/12/18 00:22:25;;;;;;;88.85;74.45;;;20.30;48.60;;;;;;4748078;56;21065;-36
2021/12/18 00:27:26;;;;;;;92.85;77.55;;;20.30;48.50;;;;;;4747589;58;21037;-38
2021/12/18 00:32:27;;;;;;;89.40;75.97;;;20.30;48.60;;;;;;5033443;54;21017;-35
2021/12/18 00:37:28;;;;;;;89.65;72.55;;;20.30;48.50;;;;;;5045771;54;21002;-40
2021/12/18 00:42:43;;;;;;;84.93;70.50;;;20.30;48.50;;;;;;5142973;55;21094;-38
2021/12/18 00:47:46;;;;;;;78.28;67.45;;;20.30;48.40;;;;;;4768727;55;21591;-39
2021/12/18 00:52:47;;;;;;;84.40;70.87;;;20.30;48.40;;;;;;4870897;55;21076;-40
2021/12/18 00:57:50;;;;;;;80.22;66.25;;;20.30;48.40;;;;;;4820606;55;21472;-36
2021/12/18 01:02:59;;;;;;;81.43;68.30;;;20.30;48.40;;;;;;4913104;55;21010;-40
2021/12/18 01:08:00;;;;;;;80.82;67.25;;;20.30;48.30;;;;;;4869110;55;21459;-38
2021/12/18 01:13:03;;;;;;;81.00;66.72;;;20.30;48.30;;;;;;4866501;54;21073;-39
2021/12/18 01:23:24;;;;;;;77.32;64.12;;;20.30;48.30;;;;;;4747979;55;21033;-38
2021/12/18 01:28:25;;;;;;;77.03;64.82;;;20.30;48.20;;;;;;4748467;58;21017;-38
2021/12/18 01:33:26;;;;;;;75.22;63.20;;;20.30;48.20;;;;;;4773896;54;21582;-37
2021/12/18 01:38:30;;;;;;;72.25;61.95;;;20.30;48.10;;;;;;4785398;55;21073;-38
2021/12/18 01:45:33;;;;;;;72.53;61.50;;;20.20;48.10;;;;;;5092639;55;21472;-36
2021/12/18 01:55:54;;;;;;;71.47;59.75;;;20.20;48.10;;;;;;4748041;55;21105;-38
2021/12/18 02:00:56;;;;;;;69.20;57.67;;;20.20;48.00;;;;;;4748578;54;21006;-35
2021/12/18 02:05:57;;;;;;;67.32;57.62;;;20.20;47.90;;;;;;5005235;55;20998;-39
2021/12/18 02:11:09;;;;;;;67.75;56.95;;;20.20;47.90;;;;;;4951570;54;20994;-39
2021/12/18 02:21:30;;;;;;;61.35;52.80;;;20.20;47.90;;;;;;4747997;55;21021;-41
2021/12/18 02:26:31;;;;;;;66.50;55.53;;;20.20;48.10;;;;;;4747607;58;21475;-39
2021/12/18 02:31:32;;;;;;;60.28;52.42;;;20.20;47.80;;;;;;4748365;58;21163;-36
2021/12/18 02:36:33;;;;;;;60.20;51.88;;;20.20;47.80;;;;;;4871100;54;21093;-37
2021/12/18 02:41:38;;;;;;;60.80;51.08;;;20.20;47.80;;;;;;4875944;54;21002;-35
2021/12/18 02:46:41;;;;;;;61.20;50.65;;;20.20;47.70;;;;;;4881049;55;21001;-37
2021/12/18 02:51:42;;;;;;;59.30;50.92;;;20.20;47.70;;;;;;4830902;55;20982;-38
2021/12/18 02:56:43;;;;;;;61.53;51.37;;;20.20;47.60;;;;;;4958188;55;21006;-40
2021/12/18 03:01:44;;;;;;;57.08;48.92;;;20.20;47.60;;;;;;4778259;54;21117;-40
2021/12/18 03:06:50;;;;;;;57.35;48.50;;;20.20;47.60;;;;;;5084721;55;21049;-39
2021/12/18 03:29:06;;;;;;;52.67;45.70;;;20.20;47.50;;;;;;4748320;58;21029;-48
2021/12/18 03:34:06;;;;;;;55.10;45.08;;;20.10;47.30;;;;;;4912769;55;21041;-38
2021/12/18 03:39:07;;;;;;;51.03;42.45;;;20.10;47.30;;;;;;4801141;54;21041;-34
2021/12/18 03:44:08;;;;;;;51.33;44.28;;;20.10;47.30;;;;;;4842685;55;21066;-38
2021/12/18 03:49:09;;;;;;;48.03;42.00;;;20.10;47.20;;;;;;4997372;55;21006;-38
2021/12/18 03:54:10;;;;;;;47.03;41.60;;;20.10;47.20;;;;;;4792548;55;21054;-38
2021/12/18 03:59:11;;;;;;;48.03;42.03;;;20.10;47.20;;;;;;5234219;55;21049;-37
2021/12/18 04:04:12;;;;;;;46.95;40.72;;;20.10;47.20;;;;;;4802649;55;21009;-37
2021/12/18 04:09:13;;;;;;;48.53;41.75;;;20.10;47.10;;;;;;4781161;55;21009;-38
2021/12/18 04:14:17;;;;;;;46.90;40.85;;;20.10;47.00;;;;;;4748097;58;21061;-38
2021/12/18 04:19:19;;;;;;;46.40;39.60;;;20.10;47.10;;;;;;4749251;55;21499;-37
2021/12/18 04:24:20;;;;;;;43.47;37.95;;;20.10;47.00;;;;;;4930695;55;21495;-38
2021/12/18 04:29:21;;;;;;;44.40;38.47;;;20.10;46.90;;;;;;4748520;58;21005;-37
2021/12/18 04:34:22;;;;;;;45.55;38.78;;;20.10;46.80;;;;;;4747782;58;21018;-39
2021/12/18 04:39:23;;;;;;;44.88;38.20;;;20.10;46.80;;;;;;5157671;55;20998;-38
2021/12/18 04:44:25;;;;;;;41.67;36.13;;;20.10;46.90;;;;;;4748883;54;21005;-39
2021/12/18 04:49:25;;;;;;;44.10;37.88;;;20.10;46.80;;;;;;4748520;58;20993;-38
2021/12/18 04:54:26;;;;;;;41.30;36.28;;;20.10;47.00;;;;;;5034021;55;21026;-39
2021/12/18 04:59:27;;;;;;;43.30;36.55;;;20.10;46.90;;;;;;5144085;55;21069;-39
2021/12/18 05:04:28;;;;;;;40.88;35.63;;;20.00;46.70;;;;;;5031249;55;21017;-37
2021/12/18 05:09:29;;;;;;;36.25;32.20;;;20.00;46.90;;;;;;4829868;54;21049;-39
2021/12/18 05:14:30;;;;;;;40.78;34.65;;;20.00;46.80;;;;;;4959701;54;21022;-38
2021/12/18 05:19:31;;;;;;;38.42;32.95;;;20.00;46.80;;;;;;4955722;55;21001;-40
2021/12/18 05:24:32;;;;;;;38.88;33.63;;;20.10;46.80;;;;;;4765678;54;21137;-38
2021/12/18 05:29:33;;;;;;;35.67;31.77;;;20.00;46.80;;;;;;5120397;55;21104;-39
2021/12/18 05:34:37;;;;;;;36.63;31.48;;;20.00;46.80;;;;;;5209454;54;21559;-40
2021/12/18 05:39:38;;;;;;;36.03;31.48;;;20.00;46.70;;;;;;4885636;55;21508;-39
2021/12/18 05:44:39;;;;;;;35.83;30.85;;;20.00;46.70;;;;;;4825119;54;21061;-39
2021/12/18 05:49:40;;;;;;;36.42;31.25;;;20.00;46.80;;;;;;5125598;54;20993;-34
2021/12/18 05:54:41;;;;;;;36.63;31.87;;;20.00;46.80;;;;;;4994074;54;21026;-40
2021/12/18 05:59:42;;;;;;;34.22;30.12;;;20.00;46.90;;;;;;4747982;58;20998;-41
2021/12/18 06:04:43;;;;;;;34.83;30.30;;;20.00;46.90;;;;;;4877575;55;21009;-40
2021/12/18 06:09:44;;;;;;;33.00;28.80;;;20.00;46.90;;;;;;4748746;58;21125;-39
2021/12/18 06:14:44;;;;;;;33.03;28.60;;;20.00;47.00;;;;;;4938814;55;21018;-38
2021/12/18 06:19:46;;;;;;;31.27;27.33;;;20.00;47.00;;;;;;4958534;55;21006;-38
2021/12/18 06:24:46;;;;;;;34.08;28.80;;;20.00;46.90;;;;;;4747932;58;21113;-42
2021/12/18 06:29:48;;;;;;;32.63;28.17;;;20.00;47.00;;;;;;4775509;54;21567;-38
2021/12/18 06:34:49;;;;;;;32.40;28.35;;;20.00;47.00;;;;;;5234511;55;21428;-40
2021/12/18 06:39:50;;;;;;;30.52;26.75;;;20.00;46.90;;;;;;4945091;54;21432;-38
2021/12/18 06:44:51;;;;;;;31.55;27.85;;;20.00;46.90;;;;;;5206746;54;20994;-38
2021/12/18 06:49:51;;;;;;;32.05;27.75;;;19.90;46.80;;;;;;5203318;54;21544;-41
2021/12/18 06:54:52;;;;;;;31.67;28.17;;;20.00;46.90;;;;;;4926095;55;21065;-37
2021/12/18 06:59:53;;;;;;;30.77;27.48;;;20.00;46.80;;;;;;5006607;55;20982;-35
2021/12/18 07:04:54;;;;;;;32.00;27.45;;;20.00;46.80;;;;;;4799417;54;21061;-38
2021/12/18 07:09:55;;;;;;;28.65;25.37;;;20.00;46.90;;;;;;4849537;55;20998;-40
2021/12/18 07:14:55;;;;;;;32.17;28.15;;;20.00;46.70;;;;;;4747054;58;21017;-40
2021/12/18 07:19:56;;;;;;;31.75;28.02;;;20.00;46.70;;;;;;5179358;54;21504;-38
2021/12/18 07:24:57;;;;;;;31.95;27.20;;;19.90;46.60;;;;;;4747008;58;21030;-38
2021/12/18 07:29:58;;;;;;;32.20;28.62;;;19.90;46.90;;;;;;4982075;55;21001;-41
2021/12/18 07:34:59;;;;;;;33.58;27.80;;;19.90;46.70;;;;;;4780211;54;21103;-40
2021/12/18 07:40:00;;;;;;;29.50;25.12;;;20.00;46.80;;;;;;4747958;58;21069;-41
2021/12/18 07:45:01;;;;;;;33.13;28.12;;;19.90;46.70;;;;;;5039794;54;21061;-38
2021/12/18 07:50:07;;;;;;;31.70;27.35;;;19.90;47.20;;;;;;4765428;55;21528;-37
2021/12/18 07:55:08;;;;;;;31.75;28.27;;;19.90;46.60;;;;;;4899508;55;21523;-39
2021/12/18 08:00:12;;;;;;;30.58;26.55;;;19.90;46.60;;;;;;4932800;55;20977;-37
2021/12/18 08:05:14;;;;;;;31.02;27.58;;;19.90;46.60;;;;;;4792758;55;20978;-39
2021/12/18 08:10:15;;;;;;;37.67;30.83;;;19.90;46.50;;;;;;4747914;58;21500;-37
2021/12/18 08:15:16;;;;;;;34.72;30.15;;;19.90;46.60;;;;;;4747131;58;21013;-39
2021/12/18 08:20:17;;;;;;;34.22;28.70;;;19.90;46.50;;;;;;4782168;54;21014;-40
2021/12/18 08:25:18;;;;;;;33.47;29.27;;;19.90;46.50;;;;;;4860943;54;21070;-35
2021/12/18 08:30:19;;;;;;;36.08;30.90;;;19.90;46.60;;;;;;4776815;54;21527;-42
2021/12/18 08:35:20;;;;;;;35.50;30.55;;;19.90;46.60;;;;;;4773844;55;21047;-40
2021/12/18 08:40:21;;;;;;;34.22;30.08;;;19.90;46.50;;;;;;5058929;55;21022;-38
2021/12/18 08:45:22;;;;;;;35.50;29.73;;;19.90;46.60;;;;;;5233833;55;21105;-37
2021/12/18 08:50:23;;;;;;;37.60;32.00;;;19.90;46.50;;;;;;4993537;55;21117;-39
2021/12/18 08:55:24;;;;;;;37.53;32.33;;;19.90;46.50;;;;;;4923587;55;21101;-35
2021/12/18 09:00:26;;;;;;;43.20;35.88;;;19.90;47.10;;;;;;4748401;58;21492;-40
2021/12/18 09:05:28;;;;;;;42.62;35.00;;;19.90;46.40;;;;;;4968667;55;20982;-39
2021/12/18 09:10:29;;;;;;;43.72;36.30;;;19.90;46.50;;;;;;4754723;55;21061;-39
2021/12/18 09:15:30;;;;;;;44.58;35.08;;;19.90;47.10;;;;;;4898553;54;21013;-38
2021/12/18 09:20:31;;;;;;;44.17;37.95;;;19.90;46.50;;;;;;4748483;58;21595;-38
2021/12/18 09:25:32;;;;;;;47.10;39.42;;;19.90;46.50;;;;;;4747931;55;21120;-39
2021/12/18 09:30:33;;;;;;;49.95;40.58;;;19.90;46.40;;;;;;4826555;55;21061;-47
2021/12/18 09:35:34;;;;;;;49.92;40.45;;;19.90;46.50;;;;;;4779431;55;21531;-39
2021/12/18 09:40:36;;;;;;;51.83;42.60;;;19.90;46.50;;;;;;4748009;58;21033;-38
2021/12/18 09:45:37;;;;;;;54.65;43.40;;;19.90;46.50;;;;;;4748657;55;20974;-40
2021/12/18 09:50:38;;;;;;;59.15;45.63;;;19.90;46.50;;;;;;4748030;55;21578;-41
2021/12/18 09:55:39;;;;;;;54.53;43.40;;;19.90;46.50;;;;;;4748274;58;20998;-39
2021/12/18 10:00:40;;;;;;;55.50;45.05;;;19.90;46.50;;;;;;4748382;58;21132;-41
2021/12/18 10:05:41;;;;;;;60.78;49.00;;;19.90;46.60;;;;;;4760352;54;21065;-39
2021/12/18 10:11:06;;;;;;;59.38;48.50;;;19.90;46.50;;;;;;4846663;55;21432;-42
2021/12/18 10:16:12;;;;;;;62.58;50.08;;;19.90;46.60;;;;;;4919205;55;21045;-39
2021/12/18 10:21:24;;;;;;;69.03;53.83;;;19.90;46.50;;;;;;4779549;55;20974;-39
2021/12/18 10:26:45;;;;;;;71.30;55.47;;;19.90;46.50;;;;;;4771638;55;21069;-40
2021/12/18 10:31:46;;;;;;;73.53;57.72;;;19.80;46.50;;;;;;4748156;55;21551;-38
2021/12/18 10:37:22;;;;;;;74.40;57.83;;;19.90;46.50;;;;;;4865577;55;21116;-39
2021/12/18 10:42:35;;;;;;;74.07;57.85;;;19.90;46.60;;;;;;4795716;55;21085;-38
2021/12/18 10:48:08;;;;;;;80.85;62.50;;;19.80;46.60;;;;;;4796852;55;20990;-37
2021/12/18 10:53:27;;;;;;;82.37;66.15;;;19.80;46.50;;;;;;4769030;55;21061;-40
2021/12/18 10:58:33;;;;;;;87.57;67.90;;;19.90;46.60;;;;;;4785979;55;21488;-40
2021/12/18 11:03:46;;;;;;;86.45;68.18;;;19.90;46.60;;;;;;4794237;55;21041;-39
2021/12/18 11:09:16;;;;;;;92.40;71.62;;;19.80;46.60;;;;;;4752421;55;21516;-36
2021/12/18 11:14:23;;;;;;;95.65;75.53;;;19.90;46.60;;;;;;4789153;55;21456;-42
2021/12/18 11:19:27;;;;;;;97.53;76.37;;;19.90;46.60;;;;;;5085808;55;21042;-38
2021/12/18 11:25:02;;;;;;;99.45;77.10;;;19.90;46.60;;;;;;4747936;58;21244;-40
2021/12/18 11:30:14;;;;;;;102.68;79.50;;;19.90;46.60;;;;;;4844901;55;21061;-39
2021/12/18 11:35:20;;;;;;;101.75;78.32;;;19.90;46.70;;;;;;4853086;55;21002;-40
2021/12/18 11:40:29;;;;;;;113.95;86.70;;;19.90;46.70;;;;;;4748735;55;21544;-39
2021/12/18 11:45:32;;;;;;;110.70;84.80;;;19.90;46.70;;;;;;4840656;55;21067;-40
2021/12/18 11:50:36;;;;;;;112.95;89.05;;;19.90;46.70;;;;;;4828023;55;21129;-40
2021/12/18 11:57:46;;;;;;;107.28;84.32;;;19.80;46.60;;;;;;4769270;55;21065;-36
2021/12/18 12:02:50;;;;;;;119.60;90.10;;;19.80;46.60;;;;;;5129320;55;21472;-41
2021/12/18 12:08:28;;;;;;;124.82;96.90;;;19.90;46.70;;;;;;4896855;55;21053;-40
2021/12/18 12:14:21;;;;;;;118.07;92.57;;;19.90;46.80;;;;;;4854209;55;21472;-41
2021/12/18 12:19:45;;;;;;;125.47;96.87;;;19.80;46.60;;;;;;4755448;54;20994;-39
2021/12/18 12:24:57;;;;;;;127.70;99.55;;;19.90;46.70;;;;;;4747851;56;21025;-38
2021/12/18 12:30:00;;;;;;;140.45;105.63;;;19.80;46.70;;;;;;4772082;55;21041;-39
2021/12/18 12:35:19;;;;;;;133.95;104.35;;;19.80;46.60;;;;;;4788355;55;21045;-40
2021/12/18 12:40:32;;;;;;;133.63;101.97;;;19.80;46.80;;;;;;4912429;55;21504;-38
2021/12/18 12:45:38;;;;;;;135.57;105.40;;;19.90;46.80;;;;;;4822106;55;21559;-48
2021/12/18 12:50:39;;;;;;;145.60;113.75;;;19.80;46.80;;;;;;4797707;55;21547;-39
2021/12/18 12:55:47;;;;;;;146.73;110.00;;;19.80;46.70;;;;;;4941176;55;21001;-40
2021/12/18 13:00:55;;;;;;;149.75;114.45;;;19.80;47.50;;;;;;4800019;55;20989;-40
2021/12/18 13:06:02;;;;;;;156.82;118.97;;;19.80;46.80;;;;;;4748519;58;21006;-38
2021/12/18 13:11:04;;;;;;;150.93;117.60;;;19.80;46.70;;;;;;4767781;55;21034;-38
2021/12/18 13:16:10;;;;;;;150.68;115.93;;;19.90;46.90;;;;;;4748326;58;21563;-38
2021/12/18 13:21:35;;;;;;;151.98;122.53;;;19.80;46.80;;;;;;4773448;55;21456;-39
2021/12/18 13:26:45;;;;;;;158.48;123.00;;;19.80;46.80;;;;;;4747377;58;21520;-38
2021/12/18 13:31:58;;;;;;;159.85;121.07;;;19.80;46.90;;;;;;5178437;55;21103;-39
2021/12/18 13:37:04;;;;;;;162.88;127.85;;;19.80;46.90;;;;;;4803011;55;21460;-37
2021/12/18 13:42:19;;;;;;;171.90;130.90;;;19.80;46.90;;;;;;4873696;55;21049;-37
2021/12/18 13:47:35;;;;;;;160.68;123.28;;;19.90;47.00;;;;;;4854203;55;21021;-40
2021/12/18 13:52:39;;;;;;;171.90;130.80;;;19.80;46.90;;;;;;4887656;55;20978;-41
2021/12/18 13:57:55;;;;;;;171.43;133.90;;;19.80;47.60;;;;;;4758894;55;21131;-41
2021/12/18 14:02:56;;;;;;;171.95;132.48;;;19.80;46.90;;;;;;4880657;55;20978;-37
2021/12/18 14:07:57;;;;;;;170.62;133.37;;;19.90;47.00;;;;;;4805758;55;21081;-41
2021/12/18 14:12:58;;;;;;;177.43;136.73;;;19.80;47.10;;;;;;4917153;55;21500;-36
2021/12/18 14:18:00;;;;;;;171.23;133.60;;;19.90;47.10;;;;;;4748284;58;21010;-39
2021/12/18 14:23:10;;;;;;;176.73;136.27;;;19.80;47.00;;;;;;4798809;55;21468;-46
2021/12/18 14:28:20;;;;;;;179.07;138.37;;;19.80;47.00;;;;;;4746769;58;21504;-35
2021/12/18 14:33:21;;;;;;;173.57;133.23;;;19.80;47.00;;;;;;4919817;55;21448;-35
2021/12/18 14:38:26;;;;;;;178.87;136.27;;;19.80;47.10;;;;;;4748083;58;21009;-34
2021/12/18 14:43:27;;;;;;;172.50;136.57;;;19.80;47.00;;;;;;4748634;58;21559;-38
2021/12/18 14:48:34;;;;;;;172.52;135.75;;;19.90;47.10;;;;;;4862791;55;21006;-39
2021/12/18 14:53:35;;;;;;;180.75;139.35;;;19.90;47.10;;;;;;4747811;55;21499;-34
2021/12/18 14:58:39;;;;;;;179.38;139.30;;;19.90;47.10;;;;;;5148164;54;21065;-37
2021/12/18 15:03:49;;;;;;;169.77;134.30;;;19.80;47.30;;;;;;4845379;55;21089;-38
2021/12/18 15:09:14;;;;;;;182.05;142.18;;;19.80;47.10;;;;;;4875565;55;21118;-38
2021/12/18 15:14:30;;;;;;;169.77;133.43;;;19.80;47.10;;;;;;4775478;55;21001;-39
2021/12/18 15:19:33;;;;;;;171.65;132.18;;;19.90;47.20;;;;;;4748237;58;21017;-38
2021/12/18 15:24:35;;;;;;;184.35;144.02;;;19.80;47.10;;;;;;5071606;54;21085;-39
2021/12/18 15:29:40;;;;;;;181.77;142.45;;;19.80;47.10;;;;;;4748579;58;20985;-40
2021/12/18 15:34:41;;;;;;;175.02;136.20;;;19.80;47.10;;;;;;4860317;55;21125;-39
2021/12/18 15:39:44;;;;;;;175.87;139.82;;;19.80;47.10;;;;;;4845547;55;21009;-39
2021/12/18 15:44:45;;;;;;;175.98;138.45;;;19.80;47.10;;;;;;4894495;55;21476;-38
2021/12/18 15:49:48;;;;;;;182.23;144.80;;;19.80;47.20;;;;;;4862027;55;21045;-38
2021/12/18 15:54:49;;;;;;;186.90;144.60;;;19.90;47.20;;;;;;4747331;58;21611;-38
2021/12/18 15:59:50;;;;;;;178.05;136.95;;;19.80;47.10;;;;;;4969560;54;21028;-38
2021/12/18 16:04:51;;;;;;;166.98;128.45;;;19.80;47.10;;;;;;5143231;55;21512;-38
2021/12/18 16:09:53;;;;;;;178.45;140.50;;;19.90;47.20;;;;;;4829073;55;21650;-41
2021/12/18 16:14:54;;;;;;;173.57;135.32;;;19.80;47.10;;;;;;4781582;55;21588;-40
2021/12/18 16:19:55;;;;;;;184.27;141.02;;;19.80;47.20;;;;;;5175980;55;21070;-39
2021/12/18 16:24:56;;;;;;;182.00;141.23;;;19.80;47.10;;;;;;4747727;58;21013;-37
2021/12/18 16:29:57;;;;;;;177.60;137.10;;;19.80;47.10;;;;;;4746890;59;21570;-39
2021/12/18 16:34:58;;;;;;;165.62;129.10;;;19.80;47.20;;;;;;4901643;54;21018;-46
2021/12/18 16:40:01;;;;;;;179.68;139.80;;;19.80;47.10;;;;;;4943133;55;21045;-40
2021/12/18 16:45:04;;;;;;;174.38;137.15;;;19.80;47.10;;;;;;4748309;58;21113;-40
2021/12/18 16:50:08;;;;;;;168.77;130.85;;;19.80;47.10;;;;;;5042344;55;21527;-39
2021/12/18 16:55:09;;;;;;;171.55;136.35;;;19.80;47.10;;;;;;4882383;55;21563;-36
2021/12/18 17:00:11;;;;;;;175.95;136.32;;;19.80;47.10;;;;;;4918953;54;21022;-39
2021/12/18 17:05:12;;;;;;;172.18;136.02;;;19.80;47.00;;;;;;5234274;55;20974;-40
2021/12/18 17:10:13;;;;;;;174.07;133.98;;;19.80;47.10;;;;;;4908718;55;20994;-40
2021/12/18 17:15:14;;;;;;;168.93;132.18;;;19.80;47.10;;;;;;4907919;55;21141;-38
2021/12/18 17:20:15;;;;;;;172.75;132.90;;;19.80;47.10;;;;;;4836971;55;21292;-38
2021/12/18 17:25:16;;;;;;;174.40;138.52;;;19.80;47.10;;;;;;4769694;55;21022;-43
2021/12/18 17:30:18;;;;;;;174.15;135.68;;;19.80;47.00;;;;;;4748760;58;21030;-37
2021/12/18 17:35:20;;;;;;;177.65;138.82;;;19.80;47.00;;;;;;4931124;55;21109;-38
2021/12/18 17:40:21;;;;;;;178.07;137.18;;;19.80;46.90;;;;;;4783374;55;21083;-39
2021/12/18 17:45:23;;;;;;;168.35;133.15;;;19.80;47.00;;;;;;4798318;55;21535;-40
2021/12/18 17:50:24;;;;;;;170.27;135.40;;;19.80;47.00;;;;;;5001065;55;21005;-38
2021/12/18 17:55:26;;;;;;;171.18;134.48;;;19.80;46.90;;;;;;4953713;55;21010;-36
2021/12/18 18:00:30;;;;;;;170.48;131.65;;;19.80;46.90;;;;;;4748822;55;21038;-40
2021/12/18 18:05:31;;;;;;;171.35;135.65;;;19.80;47.00;;;;;;4798690;55;20994;-37
2021/12/18 18:10:46;;;;;;;177.50;139.25;;;19.80;46.90;;;;;;4748578;58;21060;-37
2021/12/18 18:15:47;;;;;;;169.10;131.18;;;19.80;46.90;;;;;;4792630;55;21484;-38
2021/12/18 18:20:50;;;;;;;172.45;137.05;;;19.80;46.90;;;;;;4889892;55;21073;-35
2021/12/18 18:25:51;;;;;;;171.37;137.70;;;19.80;46.80;;;;;;4747971;55;21019;-36
2021/12/18 18:30:52;;;;;;;178.02;136.50;;;19.80;46.80;;;;;;4758441;55;21032;-44
2021/12/18 18:35:53;;;;;;;168.02;128.30;;;19.80;46.80;;;;;;4747808;58;20990;-38
2021/12/18 18:40:55;;;;;;;169.10;132.85;;;19.80;46.80;;;;;;4793176;54;21077;-33
2021/12/18 18:51:58;;;;;;;165.40;130.90;;;19.70;46.70;;;;;;4753272;55;21540;-39
2021/12/18 18:56:59;;;;;;;172.02;132.25;;;19.80;46.70;;;;;;4883236;55;20990;-39
2021/12/18 19:02:00;;;;;;;171.93;134.80;;;19.80;47.00;;;;;;4926550;55;21049;-38
2021/12/18 19:07:01;;;;;;;173.85;132.82;;;19.80;46.70;;;;;;4765988;55;21001;-39
2021/12/18 19:12:03;;;;;;;170.65;132.68;;;19.80;46.60;;;;;;4784980;55;21547;-38
2021/12/18 19:17:04;;;;;;;170.62;134.00;;;19.80;46.60;;;;;;4869229;55;20998;-42
2021/12/18 19:22:05;;;;;;;171.87;132.30;;;19.80;46.60;;;;;;4837464;55;21013;-40
2021/12/18 19:27:06;;;;;;;169.98;131.68;;;19.70;46.50;;;;;;4747662;58;21539;-37
2021/12/18 19:32:08;;;;;;;173.27;133.37;;;19.80;46.60;;;;;;4900812;55;21017;-40
2021/12/18 19:37:09;;;;;;;173.25;136.07;;;19.80;46.50;;;;;;4753074;55;21061;-39
2021/12/18 19:42:09;;;;;;;162.85;127.00;;;19.70;46.40;;;;;;4852885;55;21009;-37
2021/12/18 19:47:11;;;;;;;168.02;132.55;;;19.70;46.50;;;;;;4748441;54;21001;-39
2021/12/18 19:52:12;;;;;;;171.52;133.50;;;19.80;46.50;;;;;;4802198;55;21084;-39
2021/12/18 19:57:12;;;;;;;168.37;131.77;;;19.70;46.30;;;;;;4747908;58;21006;-38
2021/12/18 20:02:28;;;;;;;174.20;136.07;;;19.70;47.00;;;;;;4973635;55;21073;-38
2021/12/18 20:07:33;;;;;;;170.20;133.55;;;19.70;46.30;;;;;;4768852;55;21579;-38
2021/12/18 20:12:35;;;;;;;174.18;135.05;;;19.70;46.30;;;;;;5024891;55;21535;-38
2021/12/18 20:17:40;;;;;;;181.52;140.05;;;19.70;46.30;;;;;;4965570;55;21563;-39
2021/12/18 20:22:41;;;;;;;166.25;131.23;;;19.70;46.20;;;;;;5145014;55;20998;-40
2021/12/18 20:27:42;;;;;;;168.45;129.85;;;19.70;46.10;;;;;;4828996;55;21114;-40
2021/12/18 20:32:44;;;;;;;165.48;131.18;;;19.70;46.20;;;;;;4747784;58;21488;-39
2021/12/18 20:37:50;;;;;;;173.15;132.82;;;19.70;46.10;;;;;;5197685;55;21060;-37
2021/12/18 20:42:51;;;;;;;172.87;133.85;;;19.70;46.10;;;;;;4761979;55;21472;-38
2021/12/18 20:47:53;;;;;;;174.75;136.20;;;19.70;46.20;;;;;;4767581;55;21057;-37
2021/12/18 20:52:56;;;;;;;162.15;124.03;;;19.70;46.10;;;;;;4793522;55;21543;-34
2021/12/18 20:57:57;;;;;;;175.45;134.15;;;19.70;46.00;;;;;;4788560;55;20989;-39
2021/12/18 21:02:58;;;;;;;170.02;130.15;;;19.70;45.90;;;;;;4757491;55;21057;-39
2021/12/18 21:08:01;;;;;;;169.00;130.65;;;19.70;45.90;;;;;;4833948;55;20974;-39
2021/12/18 21:13:05;;;;;;;175.73;137.30;;;19.70;45.90;;;;;;4748080;56;21017;-38
2021/12/18 21:18:06;;;;;;;164.73;127.80;;;19.70;45.80;;;;;;5132980;55;20982;-38
2021/12/18 21:23:08;;;;;;;181.12;138.00;;;19.70;45.80;;;;;;4772157;55;21503;-37
2021/12/18 21:28:09;;;;;;;169.35;130.52;;;19.70;45.80;;;;;;4840147;54;21021;-39
2021/12/18 21:33:16;;;;;;;173.93;132.60;;;19.70;45.90;;;;;;4769224;54;21014;-39
2021/12/18 21:38:17;;;;;;;173.32;136.20;;;19.70;45.90;;;;;;4998291;55;21467;-38
2021/12/18 21:43:18;;;;;;;171.37;133.15;;;19.70;45.80;;;;;;4884417;55;21104;-37
2021/12/18 21:48:19;;;;;;;170.70;128.57;;;19.70;45.70;;;;;;5012386;55;20993;-38
2021/12/18 21:53:21;;;;;;;173.68;134.20;;;19.70;45.80;;;;;;4922744;55;21547;-38
2021/12/18 21:58:24;;;;;;;170.50;131.15;;;19.70;45.70;;;;;;4813091;55;21062;-38
2021/12/18 22:03:25;;;;;;;177.95;135.63;;;19.70;45.70;;;;;;4888934;55;21528;-39
2021/12/18 22:08:26;;;;;;;173.07;132.15;;;19.70;45.60;;;;;;4820720;54;21002;-38
2021/12/18 22:13:28;;;;;;;176.02;133.70;;;19.70;45.60;;;;;;4747482;58;21029;-38
2021/12/18 22:18:29;;;;;;;177.02;136.35;;;19.70;45.60;;;;;;4748369;55;21049;-37
2021/12/18 22:23:29;;;;;;;174.95;132.70;;;19.70;45.50;;;;;;4898985;54;21045;-38
2021/12/18 22:28:30;;;;;;;175.65;134.82;;;19.70;45.60;;;;;;4799228;55;21484;-37
2021/12/18 22:33:33;;;;;;;180.07;135.98;;;19.70;45.50;;;;;;4804014;55;21118;-39
2021/12/18 22:38:34;;;;;;;175.77;131.70;;;19.70;45.60;;;;;;4748397;58;21448;-36
2021/12/18 22:43:36;;;;;;;179.80;136.60;;;19.70;45.50;;;;;;4748238;58;21540;-35
2021/12/18 22:48:37;;;;;;;184.13;140.62;;;19.70;45.40;;;;;;4748246;58;20993;-38
2021/12/18 22:53:38;;;;;;;185.07;140.43;;;19.70;45.40;;;;;;4899399;55;21065;-36
2021/12/18 22:58:40;;;;;;;179.93;134.87;;;19.70;45.40;;;;;;5049139;55;21546;-38
2021/12/18 23:03:42;;;;;;;181.60;139.40;;;19.70;45.40;;;;;;4779644;55;21551;-40
2021/12/18 23:08:44;;;;;;;179.95;137.43;;;19.60;45.20;;;;;;4810789;55;20990;-37
2021/12/18 23:14:42;;;;;;;178.80;135.55;;;19.60;45.30;;;;;;4874677;55;21495;-39
2021/12/18 23:20:07;;;;;;;180.60;136.40;;;19.60;45.20;;;;;;4748290;58;21495;-37
2021/12/18 23:25:09;;;;;;;180.70;138.60;;;19.60;45.20;;;;;;4784785;55;21029;-38
2021/12/18 23:30:12;;;;;;;184.20;139.12;;;19.60;45.20;;;;;;4748245;58;21097;-38
2021/12/18 23:35:12;;;;;;;177.05;135.10;;;19.60;45.10;;;;;;4841585;55;21112;-38
2021/12/18 23:40:17;;;;;;;178.02;134.77;;;19.60;45.20;;;;;;4778052;54;21073;-40
2021/12/18 23:50:40;;;;;;;176.80;134.80;;;19.60;45.70;;;;;;4747726;55;21029;-37
2021/12/18 23:55:41;;;;;;;178.68;134.95;;;19.60;45.10;;;;;;4747254;58;21132;-37
